sensor_id;sensor_type;location;lat;lon;timestamp;temperature;humidity
6740;DHT22;3407;49.882;10.920;2023-03-01T00:01:19;-0.90;1.00
6740;DHT22;3407;49.882;10.920;2023-03-01T00:06:15;-1.00;99.90
6740;DHT22;3407;49.882;10.920;2023-03-01T00:11:15;-1.00;99.90
6740;DHT22;3407;49.882;10.920;2023-03-01T00:16:14;-1.00;99.90
6740;DHT22;3407;49.882;10.920;2023-03-01T00:21:10;-1.10;39.60
6740;DHT22;3407;49.882;10.920;2023-03-01T00:26:09;-1.10;99.90
6740;DHT22;3407;49.882;10.920;2023-03-01T00:31:10;-1.10;1.00
6740;DHT22;3407;49.882;10.920;2023-03-01T00:36:07;-1.10;1.00
6740;DHT22;3407;49.882;10.920;2023-03-01T00:41:04;-1.00;25.20
6740;DHT22;3407;49.882;10.920;2023-03-01T00:46:01;-1.00;1.00
6740;DHT22;3407;49.882;10.920;2023-03-01T00:50:56;-1.00;1.00
6740;DHT22;3407;49.882;10.920;2023-03-01T00:55:52;-1.10;99.90
6740;DHT22;3407;49.882;10.920;2023-03-01T01:00:47;-1.10;99.90
6740;DHT22;3407;49.882;10.920;2023-03-01T01:05:43;-1.00;1.00
6740;DHT22;3407;49.882;10.920;2023-03-01T01:10:38;-1.00;99.90
6740;DHT22;3407;49.882;10.920;2023-03-01T01:15:34;-0.90;1.00
6740;DHT22;3407;49.882;10.920;2023-03-01T01:20:30;-0.80;1.00
6740;DHT22;3407;49.882;10.920;2023-03-01T01:25:26;-0.70;36.30
6740;DHT22;3407;49.882;10.920;2023-03-01T01:30:21;-0.60;1.00
6740;DHT22;3407;49.882;10.920;2023-03-01T01:35:17;-0.70;1.00
6740;DHT22;3407;49.882;10.920;2023-03-01T01:40:12;-0.70;1.00
6740;DHT22;3407;49.882;10.920;2023-03-01T01:45:30;-0.80;1.00
6740;DHT22;3407;49.882;10.920;2023-03-01T01:50:27;-0.80;99.90
6740;DHT22;3407;49.882;10.920;2023-03-01T01:55:26;-0.90;1.00
6740;DHT22;3407;49.882;10.920;2023-03-01T02:00:27;-1.00;99.90
6740;DHT22;3407;49.882;10.920;2023-03-01T02:05:44;-1.10;99.90
6740;DHT22;3407;49.882;10.920;2023-03-01T02:10:42;-1.20;33.40
6740;DHT22;3407;49.882;10.920;2023-03-01T02:15:39;-1.30;99.90
6740;DHT22;3407;49.882;10.920;2023-03-01T02:31:02;-1.30;45.70
6740;DHT22;3407;49.882;10.920;2023-03-01T02:36:19;-1.40;1.00
6740;DHT22;3407;49.882;10.920;2023-03-01T02:41:17;-1.30;94.80
6740;DHT22;3407;49.882;10.920;2023-03-01T02:46:18;-1.10;1.00
6740;DHT22;3407;49.882;10.920;2023-03-01T02:51:26;-1.10;1.00
6740;DHT22;3407;49.882;10.920;2023-03-01T02:56:24;-1.10;99.90
6740;DHT22;3407;49.882;10.920;2023-03-01T03:01:21;-1.00;99.90
6740;DHT22;3407;49.882;10.920;2023-03-01T03:06:17;-1.10;21.70
6740;DHT22;3407;49.882;10.920;2023-03-01T03:11:12;-1.10;99.90
6740;DHT22;3407;49.882;10.920;2023-03-01T03:16:08;-1.10;1.00
6740;DHT22;3407;49.882;10.920;2023-03-01T03:21:08;-1.10;1.00
6740;DHT22;3407;49.882;10.920;2023-03-01T03:26:05;-1.20;99.90
6740;DHT22;3407;49.882;10.920;2023-03-01T03:31:01;-1.30;15.30
6740;DHT22;3407;49.882;10.920;2023-03-01T03:36:00;-1.30;1.00
6740;DHT22;3407;49.882;10.920;2023-03-01T03:41:04;-1.40;9.50
6740;DHT22;3407;49.882;10.920;2023-03-01T03:46:00;-1.40;99.90
6740;DHT22;3407;49.882;10.920;2023-03-01T03:51:00;-1.50;1.00
6740;DHT22;3407;49.882;10.920;2023-03-01T03:55:56;-1.60;1.00
6740;DHT22;3407;49.882;10.920;2023-03-01T04:00:54;-1.60;2.30
6740;DHT22;3407;49.882;10.920;2023-03-01T04:05:51;-1.60;99.90
6740;DHT22;3407;49.882;10.920;2023-03-01T04:10:49;-1.70;29.90
6740;DHT22;3407;49.882;10.920;2023-03-01T04:15:49;-1.70;99.90
6740;DHT22;3407;49.882;10.920;2023-03-01T04:20:46;-1.70;30.10
6740;DHT22;3407;49.882;10.920;2023-03-01T04:25:46;-1.70;99.90
6740;DHT22;3407;49.882;10.920;2023-03-01T04:30:41;-1.80;99.90
6740;DHT22;3407;49.882;10.920;2023-03-01T04:35:38;-1.80;1.00
6740;DHT22;3407;49.882;10.920;2023-03-01T04:40:34;-1.80;1.00
6740;DHT22;3407;49.882;10.920;2023-03-01T04:45:31;-1.70;99.90
6740;DHT22;3407;49.882;10.920;2023-03-01T04:50:27;-1.40;1.00
6740;DHT22;3407;49.882;10.920;2023-03-01T04:55:24;-1.30;1.00
6740;DHT22;3407;49.882;10.920;2023-03-01T05:00:22;-1.20;99.90
6740;DHT22;3407;49.882;10.920;2023-03-01T05:05:17;-1.20;99.90
6740;DHT22;3407;49.882;10.920;2023-03-01T05:10:13;-1.20;1.00
6740;DHT22;3407;49.882;10.920;2023-03-01T05:15:09;-1.20;1.00
6740;DHT22;3407;49.882;10.920;2023-03-01T05:20:05;-1.30;99.90
6740;DHT22;3407;49.882;10.920;2023-03-01T05:25:04;-1.40;1.00
6740;DHT22;3407;49.882;10.920;2023-03-01T05:30:02;-1.40;34.30
6740;DHT22;3407;49.882;10.920;2023-03-01T05:35:08;-1.40;99.90
6740;DHT22;3407;49.882;10.920;2023-03-01T05:40:04;-1.50;1.00
6740;DHT22;3407;49.882;10.920;2023-03-01T05:45:00;-1.50;99.90
6740;DHT22;3407;49.882;10.920;2023-03-01T05:49:56;-1.60;99.90
6740;DHT22;3407;49.882;10.920;2023-03-01T05:54:51;-1.60;1.00
6740;DHT22;3407;49.882;10.920;2023-03-01T05:59:47;-1.70;99.90
6740;DHT22;3407;49.882;10.920;2023-03-01T06:04:42;-1.70;99.90
6740;DHT22;3407;49.882;10.920;2023-03-01T06:09:38;-1.70;99.90
6740;DHT22;3407;49.882;10.920;2023-03-01T06:14:33;-1.70;1.00
6740;DHT22;3407;49.882;10.920;2023-03-01T06:19:29;-1.70;1.00
6740;DHT22;3407;49.882;10.920;2023-03-01T06:24:24;-1.60;1.00
6740;DHT22;3407;49.882;10.920;2023-03-01T06:29:20;-1.60;99.90
6740;DHT22;3407;49.882;10.920;2023-03-01T06:34:15;-1.50;99.90
6740;DHT22;3407;49.882;10.920;2023-03-01T06:39:11;-1.50;99.90
6740;DHT22;3407;49.882;10.920;2023-03-01T06:44:06;-1.30;99.90
6740;DHT22;3407;49.882;10.920;2023-03-01T06:49:02;-1.10;1.00
6740;DHT22;3407;49.882;10.920;2023-03-01T06:54:04;-1.00;99.90
6740;DHT22;3407;49.882;10.920;2023-03-01T06:58:59;-0.80;1.00
6740;DHT22;3407;49.882;10.920;2023-03-01T07:03:55;-0.70;1.00
6740;DHT22;3407;49.882;10.920;2023-03-01T07:08:51;-0.50;99.90
6740;DHT22;3407;49.882;10.920;2023-03-01T07:13:46;0.00;1.00
6740;DHT22;3407;49.882;10.920;2023-03-01T07:18:42;-0.10;1.00
6740;DHT22;3407;49.882;10.920;2023-03-01T07:23:37;0.10;1.00
6740;DHT22;3407;49.882;10.920;2023-03-01T07:28:33;0.50;1.00
6740;DHT22;3407;49.882;10.920;2023-03-01T07:33:31;1.00;99.90
6740;DHT22;3407;49.882;10.920;2023-03-01T07:38:28;2.60;1.00
6740;DHT22;3407;49.882;10.920;2023-03-01T07:43:24;5.70;1.00
6740;DHT22;3407;49.882;10.920;2023-03-01T07:48:19;8.00;99.90
6740;DHT22;3407;49.882;10.920;2023-03-01T07:53:15;10.30;99.90
6740;DHT22;3407;49.882;10.920;2023-03-01T07:58:10;12.10;99.90
6740;DHT22;3407;49.882;10.920;2023-03-01T08:03:05;13.00;99.90
6740;DHT22;3407;49.882;10.920;2023-03-01T08:08:01;13.80;99.90
6740;DHT22;3407;49.882;10.920;2023-03-01T08:12:56;14.30;99.90
6740;DHT22;3407;49.882;10.920;2023-03-01T08:17:52;14.80;99.90
6740;DHT22;3407;49.882;10.920;2023-03-01T08:22:47;14.60;99.90
6740;DHT22;3407;49.882;10.920;2023-03-01T08:27:43;15.20;99.90
6740;DHT22;3407;49.882;10.920;2023-03-01T08:32:39;15.60;99.90
6740;DHT22;3407;49.882;10.920;2023-03-01T08:37:35;15.60;99.90
6740;DHT22;3407;49.882;10.920;2023-03-01T08:42:30;15.50;99.90
6740;DHT22;3407;49.882;10.920;2023-03-01T08:47:25;15.60;99.90
6740;DHT22;3407;49.882;10.920;2023-03-01T08:52:21;15.90;99.90
6740;DHT22;3407;49.882;10.920;2023-03-01T08:57:17;15.90;99.90
6740;DHT22;3407;49.882;10.920;2023-03-01T09:02:15;13.70;99.90
6740;DHT22;3407;49.882;10.920;2023-03-01T09:07:11;14.10;99.90
6740;DHT22;3407;49.882;10.920;2023-03-01T09:12:06;13.70;99.90
6740;DHT22;3407;49.882;10.920;2023-03-01T09:17:02;13.20;99.90
6740;DHT22;3407;49.882;10.920;2023-03-01T09:21:58;13.00;99.90
6740;DHT22;3407;49.882;10.920;2023-03-01T09:26:55;12.60;99.90
6740;DHT22;3407;49.882;10.920;2023-03-01T09:31:50;12.80;99.90
6740;DHT22;3407;49.882;10.920;2023-03-01T09:36:46;12.90;99.90
6740;DHT22;3407;49.882;10.920;2023-03-01T09:42:02;13.30;99.90
6740;DHT22;3407;49.882;10.920;2023-03-01T09:47:00;12.10;99.90
6740;DHT22;3407;49.882;10.920;2023-03-01T09:52:23;12.00;99.90
6740;DHT22;3407;49.882;10.920;2023-03-01T09:57:31;11.70;99.90
6740;DHT22;3407;49.882;10.920;2023-03-01T10:02:47;10.90;99.90
6740;DHT22;3407;49.882;10.920;2023-03-01T10:07:57;11.20;99.90
6740;DHT22;3407;49.882;10.920;2023-03-01T10:12:57;12.40;99.90
6740;DHT22;3407;49.882;10.920;2023-03-01T10:18:04;12.70;99.90
6740;DHT22;3407;49.882;10.920;2023-03-01T10:23:03;12.60;99.90
6740;DHT22;3407;49.882;10.920;2023-03-01T10:28:16;12.00;99.90
6740;DHT22;3407;49.882;10.920;2023-03-01T10:33:24;12.20;99.90
6740;DHT22;3407;49.882;10.920;2023-03-01T10:38:21;12.50;99.90
6740;DHT22;3407;49.882;10.920;2023-03-01T10:43:17;12.80;99.90
6740;DHT22;3407;49.882;10.920;2023-03-01T10:48:26;12.30;99.90
6740;DHT22;3407;49.882;10.920;2023-03-01T10:53:35;12.70;99.90
6740;DHT22;3407;49.882;10.920;2023-03-01T10:58:32;12.40;99.90
6740;DHT22;3407;49.882;10.920;2023-03-01T11:03:36;12.10;99.90
6740;DHT22;3407;49.882;10.920;2023-03-01T11:08:38;12.10;99.90
6740;DHT22;3407;49.882;10.920;2023-03-01T11:13:35;13.40;99.90
6740;DHT22;3407;49.882;10.920;2023-03-01T11:18:31;12.70;99.90
6740;DHT22;3407;49.882;10.920;2023-03-01T11:23:28;12.70;99.90
6740;DHT22;3407;49.882;10.920;2023-03-01T11:28:26;12.70;99.90
6740;DHT22;3407;49.882;10.920;2023-03-01T11:33:49;12.20;99.90
6740;DHT22;3407;49.882;10.920;2023-03-01T11:38:46;12.30;99.90
6740;DHT22;3407;49.882;10.920;2023-03-01T11:43:52;12.00;99.90
6740;DHT22;3407;49.882;10.920;2023-03-01T11:54:39;11.50;99.90
6740;DHT22;3407;49.882;10.920;2023-03-01T12:10:17;13.00;99.90
6740;DHT22;3407;49.882;10.920;2023-03-01T12:20:33;12.90;99.90
6740;DHT22;3407;49.882;10.920;2023-03-01T12:25:47;13.00;99.90
6740;DHT22;3407;49.882;10.920;2023-03-01T12:46:20;13.10;99.90
6740;DHT22;3407;49.882;10.920;2023-03-01T12:51:23;13.40;99.90
6740;DHT22;3407;49.882;10.920;2023-03-01T12:56:22;13.30;99.90
6740;DHT22;3407;49.882;10.920;2023-03-01T13:01:26;13.00;99.90
6740;DHT22;3407;49.882;10.920;2023-03-01T13:11:41;13.20;99.90
6740;DHT22;3407;49.882;10.920;2023-03-01T13:16:41;13.20;99.90
6740;DHT22;3407;49.882;10.920;2023-03-01T13:21:45;13.30;99.90
6740;DHT22;3407;49.882;10.920;2023-03-01T13:32:00;12.80;99.90
6740;DHT22;3407;49.882;10.920;2023-03-01T13:37:09;13.10;99.90
6740;DHT22;3407;49.882;10.920;2023-03-01T13:42:29;12.40;99.90
6740;DHT22;3407;49.882;10.920;2023-03-01T13:47:27;13.10;99.90
6740;DHT22;3407;49.882;10.920;2023-03-01T13:57:25;13.40;99.90
6740;DHT22;3407;49.882;10.920;2023-03-01T14:02:21;13.70;99.90
6740;DHT22;3407;49.882;10.920;2023-03-01T14:07:21;13.70;99.90
6740;DHT22;3407;49.882;10.920;2023-03-01T14:12:44;13.50;99.90
6740;DHT22;3407;49.882;10.920;2023-03-01T14:22:51;13.50;99.90
6740;DHT22;3407;49.882;10.920;2023-03-01T14:28:13;13.10;99.90
6740;DHT22;3407;49.882;10.920;2023-03-01T14:43:25;12.40;99.90
6740;DHT22;3407;49.882;10.920;2023-03-01T14:48:21;12.70;99.90
6740;DHT22;3407;49.882;10.920;2023-03-01T14:53:25;12.60;99.90
6740;DHT22;3407;49.882;10.920;2023-03-01T14:58:24;11.60;99.90
6740;DHT22;3407;49.882;10.920;2023-03-01T15:03:41;12.10;99.90
6740;DHT22;3407;49.882;10.920;2023-03-01T15:08:44;11.90;99.90
6740;DHT22;3407;49.882;10.920;2023-03-01T15:13:40;11.80;99.90
6740;DHT22;3407;49.882;10.920;2023-03-01T15:18:37;11.10;99.90
6740;DHT22;3407;49.882;10.920;2023-03-01T15:23:33;11.10;99.90
6740;DHT22;3407;49.882;10.920;2023-03-01T15:28:33;10.70;99.90
6740;DHT22;3407;49.882;10.920;2023-03-01T15:33:37;10.40;99.90
6740;DHT22;3407;49.882;10.920;2023-03-01T15:38:36;10.00;99.90
6740;DHT22;3407;49.882;10.920;2023-03-01T15:43:47;9.70;99.90
6740;DHT22;3407;49.882;10.920;2023-03-01T15:48:46;9.30;99.90
6740;DHT22;3407;49.882;10.920;2023-03-01T15:53:51;8.60;99.90
6740;DHT22;3407;49.882;10.920;2023-03-01T15:58:47;8.10;99.90
6740;DHT22;3407;49.882;10.920;2023-03-01T16:03:43;7.80;99.90
6740;DHT22;3407;49.882;10.920;2023-03-01T16:08:39;7.70;99.90
6740;DHT22;3407;49.882;10.920;2023-03-01T16:13:35;7.40;99.90
6740;DHT22;3407;49.882;10.920;2023-03-01T16:18:31;7.20;99.90
6740;DHT22;3407;49.882;10.920;2023-03-01T16:23:26;7.10;99.90
6740;DHT22;3407;49.882;10.920;2023-03-01T16:28:22;7.00;99.90
6740;DHT22;3407;49.882;10.920;2023-03-01T16:33:17;6.80;99.90
6740;DHT22;3407;49.882;10.920;2023-03-01T16:38:13;6.60;99.90
6740;DHT22;3407;49.882;10.920;2023-03-01T16:43:09;6.40;99.90
6740;DHT22;3407;49.882;10.920;2023-03-01T16:48:04;6.30;99.90
6740;DHT22;3407;49.882;10.920;2023-03-01T16:53:00;6.20;99.90
6740;DHT22;3407;49.882;10.920;2023-03-01T16:57:55;6.00;99.90
6740;DHT22;3407;49.882;10.920;2023-03-01T17:02:51;5.80;99.90
6740;DHT22;3407;49.882;10.920;2023-03-01T17:07:48;5.70;99.90
6740;DHT22;3407;49.882;10.920;2023-03-01T17:12:44;5.60;99.90
6740;DHT22;3407;49.882;10.920;2023-03-01T17:17:39;5.40;1.00
6740;DHT22;3407;49.882;10.920;2023-03-01T17:22:35;5.30;1.00
6740;DHT22;3407;49.882;10.920;2023-03-01T17:27:30;5.20;1.00
6740;DHT22;3407;49.882;10.920;2023-03-01T17:32:29;5.10;1.00
6740;DHT22;3407;49.882;10.920;2023-03-01T17:37:25;5.00;1.00
6740;DHT22;3407;49.882;10.920;2023-03-01T17:42:20;4.90;1.00
6740;DHT22;3407;49.882;10.920;2023-03-01T17:47:16;4.80;1.00
6740;DHT22;3407;49.882;10.920;2023-03-01T17:52:11;4.70;1.00
6740;DHT22;3407;49.882;10.920;2023-03-01T17:57:07;4.60;1.00
6740;DHT22;3407;49.882;10.920;2023-03-01T18:02:02;4.50;1.00
6740;DHT22;3407;49.882;10.920;2023-03-01T18:06:58;4.40;1.00
6740;DHT22;3407;49.882;10.920;2023-03-01T18:11:54;4.30;1.00
6740;DHT22;3407;49.882;10.920;2023-03-01T18:16:49;4.30;36.30
6740;DHT22;3407;49.882;10.920;2023-03-01T18:21:45;4.20;90.30
6740;DHT22;3407;49.882;10.920;2023-03-01T18:26:40;4.20;99.90
6740;DHT22;3407;49.882;10.920;2023-03-01T18:31:36;4.10;99.90
6740;DHT22;3407;49.882;10.920;2023-03-01T18:36:34;4.10;99.90
6740;DHT22;3407;49.882;10.920;2023-03-01T18:41:30;3.90;99.90
6740;DHT22;3407;49.882;10.920;2023-03-01T18:46:26;3.90;99.90
6740;DHT22;3407;49.882;10.920;2023-03-01T18:51:25;3.80;99.90
6740;DHT22;3407;49.882;10.920;2023-03-01T18:56:21;3.70;99.90
6740;DHT22;3407;49.882;10.920;2023-03-01T19:01:21;3.70;99.90
6740;DHT22;3407;49.882;10.920;2023-03-01T19:06:17;3.60;99.90
6740;DHT22;3407;49.882;10.920;2023-03-01T19:11:14;3.40;1.00
6740;DHT22;3407;49.882;10.920;2023-03-01T19:16:17;3.40;1.00
6740;DHT22;3407;49.882;10.920;2023-03-01T19:21:13;3.40;1.00
6740;DHT22;3407;49.882;10.920;2023-03-01T19:26:11;3.30;1.00
6740;DHT22;3407;49.882;10.920;2023-03-01T19:31:10;3.30;1.00
6740;DHT22;3407;49.882;10.920;2023-03-01T19:36:07;3.30;1.00
6740;DHT22;3407;49.882;10.920;2023-03-01T19:41:04;3.20;11.50
6740;DHT22;3407;49.882;10.920;2023-03-01T19:46:00;3.10;99.90
6740;DHT22;3407;49.882;10.920;2023-03-01T19:50:56;3.00;99.90
6740;DHT22;3407;49.882;10.920;2023-03-01T19:55:57;2.90;99.90
6740;DHT22;3407;49.882;10.920;2023-03-01T20:00:53;2.90;99.90
6740;DHT22;3407;49.882;10.920;2023-03-01T20:05:55;2.80;1.00
6740;DHT22;3407;49.882;10.920;2023-03-01T20:10:52;2.70;1.00
6740;DHT22;3407;49.882;10.920;2023-03-01T20:15:48;2.60;1.00
6740;DHT22;3407;49.882;10.920;2023-03-01T20:20:48;2.60;1.00
6740;DHT22;3407;49.882;10.920;2023-03-01T20:25:45;2.60;1.00
6740;DHT22;3407;49.882;10.920;2023-03-01T20:30:41;2.50;1.00
6740;DHT22;3407;49.882;10.920;2023-03-01T20:35:40;2.50;1.00
6740;DHT22;3407;49.882;10.920;2023-03-01T20:40:36;2.40;25.40
6740;DHT22;3407;49.882;10.920;2023-03-01T20:45:32;2.30;83.70
6740;DHT22;3407;49.882;10.920;2023-03-01T20:50:27;2.30;99.90
6740;DHT22;3407;49.882;10.920;2023-03-01T20:55:23;2.20;99.90
6740;DHT22;3407;49.882;10.920;2023-03-01T21:00:19;2.20;1.00
6740;DHT22;3407;49.882;10.920;2023-03-01T21:05:14;2.10;99.90
6740;DHT22;3407;49.882;10.920;2023-03-01T21:10:10;2.00;99.90
6740;DHT22;3407;49.882;10.920;2023-03-01T21:15:06;2.00;99.90
6740;DHT22;3407;49.882;10.920;2023-03-01T21:20:02;1.90;99.90
6740;DHT22;3407;49.882;10.920;2023-03-01T21:24:58;1.80;99.90
6740;DHT22;3407;49.882;10.920;2023-03-01T21:29:54;1.60;1.00
6740;DHT22;3407;49.882;10.920;2023-03-01T21:34:49;1.50;99.90
6740;DHT22;3407;49.882;10.920;2023-03-01T21:39:45;1.50;1.00
6740;DHT22;3407;49.882;10.920;2023-03-01T21:44:40;1.40;29.80
6740;DHT22;3407;49.882;10.920;2023-03-01T21:49:37;1.40;99.90
6740;DHT22;3407;49.882;10.920;2023-03-01T21:54:32;1.30;1.00
6740;DHT22;3407;49.882;10.920;2023-03-01T21:59:28;1.30;1.00
6740;DHT22;3407;49.882;10.920;2023-03-01T22:04:23;1.20;99.90
6740;DHT22;3407;49.882;10.920;2023-03-01T22:09:21;1.20;99.90
6740;DHT22;3407;49.882;10.920;2023-03-01T22:14:18;1.30;1.00
6740;DHT22;3407;49.882;10.920;2023-03-01T22:19:14;1.30;99.90
6740;DHT22;3407;49.882;10.920;2023-03-01T22:24:11;1.30;66.70
6740;DHT22;3407;49.882;10.920;2023-03-01T22:29:09;1.30;99.90
6740;DHT22;3407;49.882;10.920;2023-03-01T22:34:05;1.30;99.90
6740;DHT22;3407;49.882;10.920;2023-03-01T22:39:01;1.30;99.90
6740;DHT22;3407;49.882;10.920;2023-03-01T22:43:56;1.20;1.00
6740;DHT22;3407;49.882;10.920;2023-03-01T22:48:52;1.20;1.00
6740;DHT22;3407;49.882;10.920;2023-03-01T22:53:48;1.10;1.00
6740;DHT22;3407;49.882;10.920;2023-03-01T22:58:44;1.00;1.00
6740;DHT22;3407;49.882;10.920;2023-03-01T23:03:39;1.00;99.90
6740;DHT22;3407;49.882;10.920;2023-03-01T23:08:35;1.00;99.90
6740;DHT22;3407;49.882;10.920;2023-03-01T23:13:30;0.90;1.00
6740;DHT22;3407;49.882;10.920;2023-03-01T23:18:26;1.00;99.90
6740;DHT22;3407;49.882;10.920;2023-03-01T23:23:21;1.00;1.00
6740;DHT22;3407;49.882;10.920;2023-03-01T23:28:17;1.00;69.60
6740;DHT22;3407;49.882;10.920;2023-03-01T23:33:12;0.90;1.00
6740;DHT22;3407;49.882;10.920;2023-03-01T23:38:08;0.90;1.00
6740;DHT22;3407;49.882;10.920;2023-03-01T23:43:03;1.00;1.00
6740;DHT22;3407;49.882;10.920;2023-03-01T23:47:59;0.90;1.00
6740;DHT22;3407;49.882;10.920;2023-03-01T23:52:54;0.90;99.90
6740;DHT22;3407;49.882;10.920;2023-03-01T23:57:50;0.80;99.90
